Time;durP1;ratioP1;P1;durP2;ratioP2;P2;SDS_P1;SDS_P2;PMS_P1;PMS_P2;Temp;Humidity;BMP_temperature;BMP_pressure;BME280_temperature;BME280_humidity;BME280_pressure;Samples;Min_cycle;Max_cycle;Signal;HPM_P1;HPM_P2
2023/10/07 00:03:22;;;;;;;;;;;8.20;99.90;;;7.32;100.00;98418.00;5003952;28;19933;-71
2023/10/07 00:06:00;;;;;;;;;;;8.20;99.90;;;7.15;100.00;98417.41;5004211;28;20025;-71
2023/10/07 00:08:27;;;;;;;;;;;8.10;99.90;;;7.11;100.00;98413.16;5016679;28;19949;-71
2023/10/07 00:10:58;;;;;;;;;;;8.10;99.90;;;7.17;100.00;98414.81;5006875;28;19961;-70
2023/10/07 00:13:31;;;;;;;;;;;8.10;99.90;;;7.18;100.00;98411.34;5019038;28;19933;-70
2023/10/07 00:15:59;;;;;;;;;;;8.00;99.90;;;7.23;100.00;98414.69;5003876;28;19987;-71
2023/10/07 00:18:28;;;;;;;;;;;8.00;99.90;;;7.11;100.00;98411.44;5007221;28;20461;-71
2023/10/07 00:20:55;;;;;;;;;;;7.90;99.90;;;7.07;100.00;98408.91;5006250;28;19930;-71
2023/10/07 00:23:26;;;;;;;;;;;7.90;99.90;;;7.13;100.00;98414.00;5007186;28;19935;-71
2023/10/07 00:25:55;;;;;;;;;;;7.90;99.90;;;7.09;100.00;98410.63;5005063;28;19944;-71
2023/10/07 00:28:35;;;;;;;;;;;7.80;99.90;;;6.98;100.00;98401.31;5005065;28;19930;-71
2023/10/07 00:31:05;;;;;;;;;;;7.90;99.90;;;7.02;100.00;98405.56;5005925;28;19979;-70
2023/10/07 00:33:52;;;;;;;;;;;7.90;99.90;;;7.02;100.00;98406.41;5005446;28;19933;-71
2023/10/07 00:36:56;;;;;;;;;;;7.80;99.90;;;7.09;100.00;98400.31;5003905;28;19929;-70
2023/10/07 00:39:20;;;;;;;;;;;7.80;99.90;;;7.06;100.00;98396.91;5001204;28;19933;-71
2023/10/07 00:41:50;;;;;;;;;;;7.90;99.90;;;7.14;100.00;98397.66;5005597;28;20028;-70
2023/10/07 00:46:49;;;;;;;;;;;7.90;99.90;;;7.21;100.00;98377.75;5007418;28;19929;-70
2023/10/07 00:49:22;;;;;;;;;;;8.00;99.90;;;7.23;100.00;98383.72;5005729;28;19925;-71
2023/10/07 00:51:52;;;;;;;;;;;8.00;99.90;;;7.29;100.00;98397.38;5006645;28;19991;-70
2023/10/07 00:57:06;;;;;;;;;;;8.10;99.90;;;7.32;100.00;98396.47;5004658;28;19956;-70
2023/10/07 00:59:35;;;;;;;;;;;8.10;99.90;;;7.36;100.00;98394.72;5006509;28;19936;-71
2023/10/07 01:02:06;;;;;;;;;;;8.20;99.90;;;7.36;100.00;98402.44;5016317;28;19937;-71
2023/10/07 01:04:40;;;;;;;;;;;8.30;99.90;;;6.98;100.00;98388.41;5008199;28;19930;-71
2023/10/07 01:07:12;;;;;;;;;;;8.30;99.90;;;7.06;100.00;98386.56;5003095;28;19926;-71
2023/10/07 01:09:57;;;;;;;;;;;8.10;99.90;;;6.99;100.00;98384.97;5003941;28;19930;-71
2023/10/07 01:12:25;;;;;;;;;;;7.90;99.90;;;6.89;100.00;98377.38;5003335;28;19991;-71
2023/10/07 01:14:53;;;;;;;;;;;7.80;99.90;;;6.89;100.00;98368.78;5006402;28;19929;-71
2023/10/07 01:17:30;;;;;;;;;;;7.70;99.90;;;6.88;100.00;98370.47;5002603;28;19933;-70
2023/10/07 01:20:03;;;;;;;;;;;7.60;99.90;;;6.66;100.00;98371.66;5000523;28;19952;-71
2023/10/07 01:22:35;;;;;;;;;;;7.60;99.90;;;6.60;100.00;98382.09;5000752;28;20028;-71
2023/10/07 01:25:09;;;;;;;;;;;7.60;99.90;;;6.72;100.00;98378.47;5000617;28;20365;-71
2023/10/07 01:27:49;;;;;;;;;;;7.60;99.90;;;6.99;100.00;98382.38;4999307;28;20007;-70
2023/10/07 01:30:16;;;;;;;;;;;7.80;99.90;;;7.18;100.00;98383.78;4998135;28;19938;-71
2023/10/07 01:35:40;;;;;;;;;;;8.00;99.90;;;7.19;100.00;98382.94;5004630;28;19936;-70
2023/10/07 01:38:07;;;;;;;;;;;8.00;99.90;;;7.39;100.00;98387.78;5003031;28;20323;-69
2023/10/07 01:40:44;;;;;;;;;;;8.20;99.90;;;7.60;100.00;98383.97;5001241;28;20064;-70
2023/10/07 01:43:11;;;;;;;;;;;8.30;99.90;;;7.78;100.00;98392.25;5010895;28;20476;-71
2023/10/07 01:45:39;;;;;;;;;;;8.50;99.90;;;7.79;100.00;98391.38;5002558;28;19934;-71
2023/10/07 01:48:11;;;;;;;;;;;8.60;99.90;;;7.88;100.00;98373.13;5002057;28;19929;-69
2023/10/07 01:50:44;;;;;;;;;;;8.70;99.90;;;7.98;100.00;98384.97;4998496;28;19953;-70
2023/10/07 01:53:11;;;;;;;;;;;8.80;99.90;;;8.00;100.00;98385.78;4998678;28;20007;-70
2023/10/07 01:55:48;;;;;;;;;;;8.80;99.90;;;8.09;100.00;98392.53;4999877;28;19972;-71
2023/10/07 01:58:17;;;;;;;;;;;8.90;99.90;;;8.09;100.00;98377.84;5000350;28;19933;-71
2023/10/07 02:00:51;;;;;;;;;;;9.00;99.90;;;8.14;100.00;98367.41;5001699;28;19940;-70
2023/10/07 02:03:23;;;;;;;;;;;9.00;99.90;;;8.15;100.00;98377.75;5016484;28;19937;-71
2023/10/07 02:05:51;;;;;;;;;;;9.00;99.90;;;8.26;100.00;98379.28;4988782;28;19929;-70
2023/10/07 02:08:25;;;;;;;;;;;9.10;99.90;;;7.89;100.00;98383.44;5006875;28;19933;-71
2023/10/07 02:10:57;;;;;;;;;;;9.00;99.90;;;7.52;100.00;98388.41;5000800;28;19969;-71
2023/10/07 02:13:27;;;;;;;;;;;8.70;99.90;;;7.39;100.00;98394.63;5016681;28;20486;-71
2023/10/07 02:15:55;;;;;;;;;;;8.50;99.90;;;7.16;100.00;98402.75;5017069;28;19929;-71
2023/10/07 02:18:28;;;;;;;;;;;8.30;99.90;;;7.15;100.00;98399.34;4999155;28;20021;-71
2023/10/07 02:21:07;;;;;;;;;;;8.20;99.90;;;7.04;100.00;98394.34;5002166;28;19951;-71
2023/10/07 02:23:43;;;;;;;;;;;8.20;99.90;;;6.89;100.00;98399.75;5002486;28;19929;-71
2023/10/07 02:26:18;;;;;;;;;;;8.10;99.90;;;7.04;100.00;98406.41;5002971;28;19968;-71
2023/10/07 02:28:52;;;;;;;;;;;8.00;99.90;;;7.23;100.00;98410.41;5002490;28;20327;-71
2023/10/07 02:31:21;;;;;;;;;;;8.10;99.90;;;7.43;100.00;98410.06;5015952;28;19926;-71
2023/10/07 02:33:52;;;;;;;;;;;8.20;99.90;;;7.57;100.00;98409.81;5014915;28;19931;-70
2023/10/07 02:41:48;;;;;;;;;;;8.60;99.90;;;7.75;100.00;98409.53;5001476;28;19925;-70
2023/10/07 02:44:17;;;;;;;;;;;8.60;99.90;;;7.74;100.00;98412.13;5000045;28;20442;-71
2023/10/07 02:46:52;;;;;;;;;;;8.70;99.90;;;7.24;100.00;98413.84;5016012;28;20444;-71
2023/10/07 02:49:25;;;;;;;;;;;8.40;99.90;;;7.03;100.00;98402.97;4999724;28;19980;-71
2023/10/07 02:51:58;;;;;;;;;;;8.10;99.90;;;6.90;100.00;98401.44;5001480;28;19936;-70
2023/10/07 02:54:33;;;;;;;;;;;8.00;99.90;;;6.98;100.00;98399.59;5002099;28;19929;-71
2023/10/07 02:59:50;;;;;;;;;;;7.80;99.90;;;7.02;100.00;98380.59;5001991;28;19936;-71
2023/10/07 03:04:58;;;;;;;;;;;7.90;99.90;;;7.04;100.00;98389.16;5004135;28;20027;-71
2023/10/07 03:07:26;;;;;;;;;;;7.90;99.90;;;7.05;100.00;98380.56;5000023;28;19929;-72
2023/10/07 03:10:04;;;;;;;;;;;8.00;99.90;;;7.06;100.00;98387.41;5004282;28;20012;-71
2023/10/07 03:12:36;;;;;;;;;;;8.00;99.90;;;7.07;100.00;98377.94;5001253;28;20353;-71
2023/10/07 03:15:20;;;;;;;;;;;8.00;99.90;;;7.29;100.00;98379.31;5002470;28;20311;-71
2023/10/07 03:17:49;;;;;;;;;;;8.10;99.90;;;7.19;100.00;98382.94;5000817;28;19987;-69
2023/10/07 03:20:27;;;;;;;;;;;8.10;99.90;;;7.33;100.00;98383.53;5015433;28;19933;-71
2023/10/07 03:23:13;;;;;;;;;;;8.10;99.90;;;7.42;100.00;98382.53;4999553;28;19929;-70
2023/10/07 03:28:38;;;;;;;;;;;8.40;99.90;;;7.61;100.00;98372.72;5012134;28;19933;-71
2023/10/07 03:31:10;;;;;;;;;;;8.40;99.90;;;7.68;100.00;98373.47;5000679;28;19936;-71
2023/10/07 03:33:45;;;;;;;;;;;8.50;99.90;;;7.80;100.00;98370.69;5002582;28;20021;-71
2023/10/07 03:38:55;;;;;;;;;;;8.50;99.90;;;7.91;100.00;98383.38;5000018;28;19926;-71
2023/10/07 03:41:23;;;;;;;;;;;8.50;99.90;;;7.97;100.00;98389.28;5011026;28;19988;-71
2023/10/07 03:43:50;;;;;;;;;;;8.50;99.90;;;7.95;100.00;98388.47;5004180;28;19965;-71
2023/10/07 03:46:18;;;;;;;;;;;8.60;99.90;;;7.94;100.00;98391.94;5003665;28;19929;-71
2023/10/07 03:48:53;;;;;;;;;;;8.60;99.90;;;7.87;100.00;98390.34;5001301;28;20016;-71
2023/10/07 03:51:22;;;;;;;;;;;8.70;99.90;;;7.88;100.00;98389.47;5002083;28;19929;-71
2023/10/07 03:54:00;;;;;;;;;;;8.80;99.90;;;7.94;100.00;98391.94;4999042;28;20473;-71
2023/10/07 03:56:27;;;;;;;;;;;8.70;99.90;;;8.03;100.00;98401.25;4999130;28;19996;-71
2023/10/07 03:58:55;;;;;;;;;;;8.70;99.90;;;8.00;100.00;98409.06;4997818;28;19948;-71
2023/10/07 04:01:26;;;;;;;;;;;8.80;99.90;;;7.97;100.00;98404.81;4999235;28;19925;-71
2023/10/07 04:03:59;;;;;;;;;;;8.80;99.90;;;8.00;100.00;98400.47;4998696;28;19929;-71
2023/10/07 04:06:34;;;;;;;;;;;8.80;99.90;;;8.00;100.00;98405.63;5008434;28;20405;-71
2023/10/07 04:09:07;;;;;;;;;;;8.80;99.90;;;8.01;100.00;98400.44;5000403;28;20292;-71
2023/10/07 04:11:39;;;;;;;;;;;8.80;99.90;;;8.06;100.00;98406.38;5014747;28;19930;-70
2023/10/07 04:14:19;;;;;;;;;;;8.80;99.90;;;8.05;100.00;98406.38;5000857;28;20375;-71
2023/10/07 04:16:50;;;;;;;;;;;8.70;99.90;;;8.07;100.00;98400.28;5002653;28;19929;-70
2023/10/07 04:21:45;;;;;;;;;;;8.60;99.90;;;7.90;100.00;98384.28;4999505;28;19934;-71
2023/10/07 04:24:13;;;;;;;;;;;8.70;99.90;;;7.82;100.00;98378.38;5001965;28;19930;-71
2023/10/07 04:26:42;;;;;;;;;;;8.70;99.90;;;7.75;100.00;98375.94;5010778;28;19929;-71
2023/10/07 04:29:15;;;;;;;;;;;8.60;99.90;;;7.82;100.00;98381.81;5001598;28;20015;-71
2023/10/07 04:31:53;;;;;;;;;;;8.60;99.90;;;7.78;100.00;98384.47;5001130;28;19940;-70
2023/10/07 04:34:21;;;;;;;;;;;8.50;99.90;;;7.80;100.00;98369.81;5001163;28;19958;-70
2023/10/07 04:39:37;;;;;;;;;;;8.50;99.90;;;7.88;100.00;98379.13;5003334;28;20020;-71
2023/10/07 04:42:06;;;;;;;;;;;8.50;99.90;;;7.82;100.00;98378.38;5005698;28;20019;-71
2023/10/07 04:49:57;;;;;;;;;;;8.40;99.90;;;7.79;100.00;98375.88;5005401;28;19925;-70
2023/10/07 04:52:26;;;;;;;;;;;8.40;99.90;;;7.69;100.00;98375.19;5001851;28;20017;-71
2023/10/07 04:54:56;;;;;;;;;;;8.40;99.90;;;7.61;100.00;98382.22;5003648;28;20537;-70
2023/10/07 04:57:39;;;;;;;;;;;8.40;99.90;;;7.69;100.00;98382.94;5003899;28;19933;-70
2023/10/07 05:00:17;;;;;;;;;;;8.30;99.90;;;7.58;100.00;98387.44;5004135;28;20436;-70
2023/10/07 05:02:44;;;;;;;;;;;8.30;99.90;;;7.62;100.00;98397.69;5007310;28;20476;-71
2023/10/07 05:05:13;;;;;;;;;;;8.30;99.90;;;7.71;100.00;98404.44;5007652;28;20015;-70
2023/10/07 05:07:43;;;;;;;;;;;8.30;99.90;;;7.65;100.00;98386.47;5016074;28;20424;-71
2023/10/07 05:10:10;;;;;;;;;;;8.30;99.90;;;7.65;100.00;98384.72;4989788;28;20461;-70
2023/10/07 05:12:39;;;;;;;;;;;8.40;99.90;;;7.73;100.00;98393.19;5006465;28;20535;-70
2023/10/07 05:15:08;;;;;;;;;;;8.40;99.90;;;7.75;100.00;98395.75;5014713;28;19929;-71
2023/10/07 05:17:36;;;;;;;;;;;8.40;99.90;;;7.77;100.00;98393.13;5002156;28;20334;-72
2023/10/07 05:20:25;;;;;;;;;;;8.50;99.90;;;7.74;100.00;98384.56;5002040;28;20445;-70
2023/10/07 05:22:51;;;;;;;;;;;8.50;99.90;;;7.85;100.00;98379.19;5005539;28;19930;-71
2023/10/07 05:25:18;;;;;;;;;;;8.60;99.90;;;7.80;100.00;98378.44;5004708;28;20019;-71
2023/10/07 05:27:45;;;;;;;;;;;8.60;99.90;;;7.80;100.00;98378.44;5006459;28;20029;-71
2023/10/07 05:30:21;;;;;;;;;;;8.60;99.90;;;7.88;100.00;98388.63;5003375;28;20039;-71
2023/10/07 05:32:48;;;;;;;;;;;8.60;99.90;;;7.97;100.00;98402.22;5002480;28;19934;-71
2023/10/07 05:35:18;;;;;;;;;;;8.60;99.90;;;7.91;100.00;98396.31;4997770;28;20400;-70
2023/10/07 05:37:46;;;;;;;;;;;8.70;99.90;;;7.95;100.00;98411.72;5015604;28;19929;-71
2023/10/07 05:40:16;;;;;;;;;;;8.70;99.90;;;7.96;100.00;98400.53;4999640;28;19937;-71
2023/10/07 05:42:43;;;;;;;;;;;8.70;99.90;;;7.94;100.00;98401.44;5002832;28;19933;-71
2023/10/07 05:45:10;;;;;;;;;;;8.70;99.90;;;7.99;100.00;98409.94;5002830;28;19930;-70
2023/10/07 05:47:37;;;;;;;;;;;8.70;99.90;;;7.97;100.00;98415.13;5004947;28;19964;-71
2023/10/07 05:50:05;;;;;;;;;;;8.80;99.90;;;7.99;100.00;98419.44;5001449;28;19995;-71
2023/10/07 05:52:32;;;;;;;;;;;8.80;99.90;;;8.10;100.00;98426.13;5001833;28;19932;-71
2023/10/07 05:54:59;;;;;;;;;;;8.90;99.90;;;8.09;100.00;98420.97;5003537;28;19936;-71
2023/10/07 05:57:27;;;;;;;;;;;8.90;99.90;;;8.21;100.00;98422.47;4997613;28;20425;-71
2023/10/07 05:59:54;;;;;;;;;;;8.90;99.90;;;8.25;100.00;98412.03;4997327;28;19930;-71
2023/10/07 06:02:21;;;;;;;;;;;8.90;99.90;;;8.36;100.00;98423.00;5003638;28;19925;-70
2023/10/07 06:04:48;;;;;;;;;;;9.00;99.90;;;8.34;100.00;98429.09;4999837;28;19934;-71
2023/10/07 06:07:15;;;;;;;;;;;9.00;99.90;;;8.35;100.00;98421.31;5002948;28;20533;-71
2023/10/07 06:09:42;;;;;;;;;;;9.00;99.90;;;8.34;100.00;98440.28;5000522;28;20415;-71
2023/10/07 06:12:11;;;;;;;;;;;9.10;99.90;;;8.48;100.00;98432.28;5001849;28;19933;-71
2023/10/07 06:14:39;;;;;;;;;;;9.10;99.90;;;8.51;100.00;98436.56;4998480;28;20000;-71
2023/10/07 06:17:06;;;;;;;;;;;9.20;99.90;;;8.45;100.00;98447.88;4998843;28;20398;-70
2023/10/07 06:19:34;;;;;;;;;;;9.20;99.90;;;8.64;100.00;98440.59;5002775;28;19937;-71
2023/10/07 06:22:11;;;;;;;;;;;9.20;99.90;;;8.75;100.00;98438.63;5002827;28;19937;-71
2023/10/07 06:24:40;;;;;;;;;;;9.20;99.90;;;8.63;100.00;98451.81;5003737;28;19974;-70
2023/10/07 06:27:11;;;;;;;;;;;9.20;99.90;;;8.65;100.00;98450.06;5016817;28;19945;-70
2023/10/07 06:29:45;;;;;;;;;;;9.30;99.90;;;8.67;100.00;98450.03;5018683;28;19987;-70
2023/10/07 06:32:25;;;;;;;;;;;9.40;99.90;;;8.74;100.00;98447.28;5002884;28;20399;-70
2023/10/07 06:34:55;;;;;;;;;;;9.40;99.90;;;8.73;100.00;98442.13;5000552;28;20023;-71
2023/10/07 06:37:28;;;;;;;;;;;9.40;99.90;;;8.88;100.00;98436.63;5006390;28;19933;-72
2023/10/07 06:40:00;;;;;;;;;;;9.50;99.90;;;8.81;100.00;98431.63;5019053;28;20512;-73
2023/10/07 06:42:28;;;;;;;;;;;9.50;99.90;;;8.95;100.00;98435.59;5014427;28;19983;-72
2023/10/07 06:45:06;;;;;;;;;;;9.50;99.90;;;9.06;100.00;98434.53;5005140;28;19952;-72
2023/10/07 06:47:33;;;;;;;;;;;9.50;99.90;;;8.84;100.00;98434.97;4999206;28;19969;-72
2023/10/07 06:50:02;;;;;;;;;;;9.60;99.90;;;8.87;100.00;98447.88;4999620;28;19929;-72
2023/10/07 06:52:30;;;;;;;;;;;9.60;99.90;;;8.84;100.00;98450.53;4999898;28;19930;-73
2023/10/07 06:54:57;;;;;;;;;;;9.60;99.90;;;9.01;100.00;98434.63;5004889;28;20457;-72
2023/10/07 06:57:37;;;;;;;;;;;9.70;99.90;;;9.12;100.00;98440.41;4993717;28;19930;-73
2023/10/07 07:00:09;;;;;;;;;;;9.80;99.90;;;9.32;100.00;98462.41;4997860;28;20020;-73
2023/10/07 07:02:36;;;;;;;;;;;10.00;99.90;;;9.32;100.00;98457.22;4999347;28;19933;-72
2023/10/07 07:05:11;;;;;;;;;;;10.10;99.90;;;9.48;100.00;98453.38;5003272;28;20344;-72
2023/10/07 07:07:38;;;;;;;;;;;10.20;99.90;;;9.47;100.00;98456.88;5000023;28;19936;-72
2023/10/07 07:10:09;;;;;;;;;;;10.20;99.90;;;9.54;100.00;98458.41;5005161;28;19930;-72
2023/10/07 07:12:37;;;;;;;;;;;10.30;99.90;;;9.70;100.00;98463.22;5001943;28;20038;-72
2023/10/07 07:15:05;;;;;;;;;;;10.40;99.90;;;9.74;100.00;98472.59;5000754;28;19961;-71
2023/10/07 07:22:44;;;;;;;;;;;10.60;99.90;;;9.96;100.00;98480.72;5012370;28;19925;-72
2023/10/07 07:25:29;;;;;;;;;;;10.70;99.90;;;9.97;100.00;98483.28;4999866;28;19972;-73
2023/10/07 07:28:00;;;;;;;;;;;10.70;99.90;;;10.10;100.00;98482.94;5001298;28;20244;-73
2023/10/07 07:30:30;;;;;;;;;;;10.80;99.90;;;10.05;100.00;98491.69;5001713;28;20157;-72
2023/10/07 07:33:00;;;;;;;;;;;10.80;99.90;;;10.17;100.00;98498.31;5003483;28;19933;-72
2023/10/07 07:35:39;;;;;;;;;;;10.80;99.90;;;10.03;100.00;98485.72;5000439;28;20325;-72
2023/10/07 07:38:29;;;;;;;;;;;10.80;99.90;;;10.17;100.00;98484.47;4987756;28;19930;-72
2023/10/07 07:41:04;;;;;;;;;;;10.80;99.90;;;10.27;100.00;98485.97;5011756;28;20437;-70
2023/10/07 07:43:37;;;;;;;;;;;10.80;99.90;;;10.18;100.00;98493.97;5015474;28;19937;-73
2023/10/07 07:46:18;;;;;;;;;;;10.90;99.90;;;10.18;100.00;98478.41;4985115;28;19937;-73
2023/10/07 07:48:48;;;;;;;;;;;10.90;99.90;;;10.24;100.00;98486.88;5009987;28;19930;-73
2023/10/07 07:51:20;;;;;;;;;;;10.80;99.90;;;10.35;100.00;98488.38;5016847;28;19934;-72
2023/10/07 07:53:48;;;;;;;;;;;10.80;99.90;;;10.32;100.00;98485.88;5010990;28;19933;-73
2023/10/07 07:56:15;;;;;;;;;;;10.70;99.90;;;10.30;100.00;98498.03;5011012;28;20042;-72
2023/10/07 07:58:52;;;;;;;;;;;10.70;99.90;;;10.35;100.00;98494.41;4999873;28;19934;-72
2023/10/07 08:01:23;;;;;;;;;;;10.90;99.90;;;10.50;100.00;98502.69;5001397;28;19981;-72
2023/10/07 08:03:50;;;;;;;;;;;11.00;99.90;;;10.32;100.00;98511.81;5000826;28;20028;-72
2023/10/07 08:06:21;;;;;;;;;;;11.00;99.90;;;10.51;100.00;98509.56;5000416;28;19976;-72
2023/10/07 08:08:49;;;;;;;;;;;11.10;99.90;;;10.47;100.00;98514.00;4999063;28;19936;-72
2023/10/07 08:11:19;;;;;;;;;;;11.20;99.90;;;10.65;100.00;98517.81;5003093;28;19929;-72
2023/10/07 08:13:48;;;;;;;;;;;11.30;99.90;;;10.78;100.00;98520.94;5008177;28;19926;-72
2023/10/07 08:16:18;;;;;;;;;;;11.30;99.90;;;11.10;100.00;98523.44;5010757;28;19929;-72
2023/10/07 08:18:54;;;;;;;;;;;11.40;99.90;;;11.14;100.00;98520.75;5002820;28;19929;-71
2023/10/07 08:21:28;;;;;;;;;;;11.40;99.90;;;11.33;100.00;98518.47;5006079;28;20370;-72
2023/10/07 08:24:01;;;;;;;;;;;11.60;99.90;;;11.40;100.00;98518.22;4998186;28;19947;-73
2023/10/07 08:26:34;;;;;;;;;;;11.70;99.90;;;11.27;100.00;98528.16;5005107;28;20505;-73
2023/10/07 08:29:02;;;;;;;;;;;11.90;99.90;;;11.40;100.00;98528.59;5004856;28;20008;-73
2023/10/07 08:31:38;;;;;;;;;;;12.00;99.90;;;11.50;100.00;98537.84;5008104;28;19934;-72
2023/10/07 08:36:42;;;;;;;;;;;12.20;99.90;;;12.04;100.00;98559.59;5007449;28;19935;-73
2023/10/07 08:39:10;;;;;;;;;;;12.30;99.90;;;12.13;100.00;98558.41;5004450;28;19934;-72
2023/10/07 08:41:40;;;;;;;;;;;12.40;99.90;;;12.10;100.00;98561.97;5000268;28;19937;-73
2023/10/07 08:44:14;;;;;;;;;;;12.40;99.90;;;12.23;100.00;98569.38;5004489;28;19935;-73
2023/10/07 08:46:54;;;;;;;;;;;12.60;99.90;;;12.49;100.00;98571.94;5003375;28;19937;-73
2023/10/07 08:49:25;;;;;;;;;;;12.60;99.90;;;12.56;100.00;98568.22;5005636;28;19934;-73
2023/10/07 08:51:54;;;;;;;;;;;12.70;99.90;;;12.37;100.00;98574.13;5003638;28;19930;-72
2023/10/07 08:54:44;;;;;;;;;;;12.90;99.90;;;12.91;100.00;98571.34;5017060;28;19972;-72
2023/10/07 08:57:18;;;;;;;;;;;13.00;99.90;;;12.98;100.00;98561.56;5003996;28;20004;-73
2023/10/07 08:59:52;;;;;;;;;;;13.20;99.90;;;13.05;100.00;98562.19;5003911;28;19929;-73
2023/10/07 09:02:30;;;;;;;;;;;13.30;99.90;;;13.05;100.00;98567.38;5004211;28;19932;-73
2023/10/07 09:04:58;;;;;;;;;;;13.40;99.90;;;12.97;100.00;98555.47;5017385;28;20019;-73
2023/10/07 09:07:36;;;;;;;;;;;13.40;99.90;;;13.10;100.00;98562.84;5003634;28;19926;-72
2023/10/07 09:10:10;;;;;;;;;;;13.40;99.90;;;13.10;100.00;98568.91;5017553;28;19984;-73
2023/10/07 09:12:51;;;;;;;;;;;13.40;99.90;;;13.17;100.00;98567.75;4989565;28;19984;-73
2023/10/07 09:15:25;;;;;;;;;;;13.50;99.90;;;13.35;100.00;98573.25;5018077;28;20003;-73
2023/10/07 09:18:03;;;;;;;;;;;13.50;99.90;;;13.10;100.00;98573.28;5003608;28;19925;-73
2023/10/07 09:20:32;;;;;;;;;;;13.60;99.90;;;13.24;100.00;98575.38;5007904;28;19933;-71
2023/10/07 09:23:34;;;;;;;;;;;13.60;99.90;;;13.27;100.00;98573.47;5015608;28;20457;-71
2023/10/07 09:25:52;;;;;;;;;;;13.70;99.90;;;13.21;100.00;98576.34;4986987;28;20210;-72
2023/10/07 09:28:36;;;;;;;;;;;13.80;99.90;;;13.42;100.00;98561.66;4986599;28;20687;-72
2023/10/07 09:31:09;;;;;;;;;;;13.80;99.90;;;13.41;100.00;98570.41;4986697;28;19999;-72
2023/10/07 09:33:36;;;;;;;;;;;13.80;99.90;;;13.57;100.00;98571.50;4991548;28;19929;-72
2023/10/07 09:36:22;;;;;;;;;;;13.90;99.90;;;13.79;100.00;98570.66;4990801;28;20039;-71
2023/10/07 09:39:04;;;;;;;;;;;14.00;99.90;;;13.63;100.00;98577.41;4984688;28;20126;-72
2023/10/07 09:41:32;;;;;;;;;;;14.10;99.90;;;13.46;100.00;98589.34;4986968;28;19929;-71
2023/10/07 09:44:01;;;;;;;;;;;14.20;99.90;;;13.65;100.00;98584.25;4988907;28;19988;-72
2023/10/07 09:46:29;;;;;;;;;;;14.20;99.90;;;13.94;100.00;98582.25;5002930;28;19980;-72
2023/10/07 09:49:05;;;;;;;;;;;14.30;99.90;;;13.92;100.00;98586.69;5003863;28;20648;-74
2023/10/07 09:51:44;;;;;;;;;;;14.30;99.90;;;14.02;100.00;98580.16;4997367;28;19929;-73
2023/10/07 09:54:36;;;;;;;;;;;14.30;99.90;;;13.88;100.00;98587.72;5004166;28;20480;-72
2023/10/07 09:57:14;;;;;;;;;;;14.30;99.90;;;14.04;100.00;98586.19;4999042;28;19929;-73
2023/10/07 09:59:41;;;;;;;;;;;14.40;99.90;;;14.08;100.00;98586.91;4998654;28;20050;-73
2023/10/07 10:02:42;;;;;;;;;;;14.60;99.90;;;14.21;100.00;98590.72;5003348;28;20012;-72
2023/10/07 10:05:26;;;;;;;;;;;14.50;99.90;;;14.14;100.00;98573.59;4999673;28;19940;-73
2023/10/07 10:08:11;;;;;;;;;;;14.70;99.90;;;14.02;100.00;98575.78;5003081;28;19991;-74
2023/10/07 10:10:44;;;;;;;;;;;14.70;99.90;;;14.29;100.00;98579.97;5002915;28;19966;-73
2023/10/07 10:16:14;;;;;;;;;;;14.80;99.90;;;14.35;100.00;98569.25;4999659;28;20016;-74
2023/10/07 10:18:51;;;;;;;;;;;14.80;99.90;;;14.32;100.00;98574.59;5003656;28;19984;-75
2023/10/07 10:21:25;;;;;;;;;;;14.80;99.90;;;14.67;100.00;98567.06;5005253;28;19929;-74
2023/10/07 10:23:55;;;;;;;;;;;14.70;99.90;;;14.52;100.00;98568.53;5005188;28;19929;-73
2023/10/07 10:26:27;;;;;;;;;;;14.90;99.90;;;14.37;100.00;98564.84;4986448;28;20195;-75
2023/10/07 10:29:04;;;;;;;;;;;14.80;99.90;;;14.43;100.00;98569.78;5002528;28;19957;-75
2023/10/07 10:31:32;;;;;;;;;;;14.90;99.90;;;14.49;100.00;98566.06;4998984;28;19973;-74
2023/10/07 10:34:08;;;;;;;;;;;15.00;99.90;;;14.59;100.00;98563.00;4999763;28;20028;-74
2023/10/07 10:36:43;;;;;;;;;;;14.90;99.90;;;14.53;100.00;98570.22;5004586;28;19944;-75
2023/10/07 10:39:18;;;;;;;;;;;14.90;99.90;;;14.68;100.00;98563.53;5019853;28;19929;-74
2023/10/07 10:41:49;;;;;;;;;;;14.90;99.90;;;14.64;100.00;98570.66;5006254;28;19964;-75
2023/10/07 10:44:17;;;;;;;;;;;14.90;99.90;;;14.78;100.00;98556.97;5001042;28;20214;-75
2023/10/07 10:46:49;;;;;;;;;;;15.10;99.90;;;14.86;100.00;98557.50;5003986;28;20024;-75
2023/10/07 10:49:20;;;;;;;;;;;15.10;99.90;;;14.94;100.00;98557.16;5000466;28;20347;-75
2023/10/07 10:51:54;;;;;;;;;;;15.20;99.90;;;14.90;100.00;98559.06;4993139;28;20166;-75
2023/10/07 10:54:23;;;;;;;;;;;15.30;99.90;;;15.03;100.00;98573.28;4997162;28;19929;-75
2023/10/07 10:56:58;;;;;;;;;;;15.30;99.90;;;14.67;100.00;98565.31;5012464;28;19937;-75
2023/10/07 10:59:47;;;;;;;;;;;15.40;99.90;;;14.82;100.00;98563.78;5001645;28;19929;-74
2023/10/07 11:02:22;;;;;;;;;;;15.30;99.90;;;14.89;100.00;98559.97;4984293;28;20035;-73
2023/10/07 11:04:52;;;;;;;;;;;15.40;99.90;;;15.31;100.00;98553.72;5015417;28;19936;-71
2023/10/07 11:07:21;;;;;;;;;;;15.60;99.90;;;15.56;100.00;98552.59;5002331;28;19930;-72
2023/10/07 11:09:51;;;;;;;;;;;15.90;99.90;;;15.52;100.00;98549.25;5012877;28;20567;-73
2023/10/07 11:12:22;;;;;;;;;;;16.00;99.90;;;15.75;100.00;98561.28;5002857;28;19934;-73
2023/10/07 11:15:06;;;;;;;;;;;16.00;99.90;;;15.71;100.00;98551.03;4996772;28;19949;-72
2023/10/07 11:17:38;;;;;;;;;;;16.20;99.90;;;15.79;100.00;98548.91;5001731;28;19926;-73
2023/10/07 11:20:08;;;;;;;;;;;16.30;99.90;;;15.89;100.00;98550.13;5012086;28;20021;-74
2023/10/07 11:22:39;;;;;;;;;;;16.50;99.90;;;15.67;100.00;98535.44;4999688;28;20316;-74
2023/10/07 11:25:12;;;;;;;;;;;16.40;99.90;;;15.71;100.00;98538.78;4998121;28;19926;-73
2023/10/07 11:27:42;;;;;;;;;;;16.30;99.90;;;15.50;100.00;98539.78;5000548;28;20040;-72
2023/10/07 11:30:14;;;;;;;;;;;16.30;99.90;;;15.43;100.00;98539.22;4999150;28;19965;-75
2023/10/07 11:32:44;;;;;;;;;;;16.20;99.90;;;15.56;100.00;98555.19;4997988;28;19934;-75
2023/10/07 11:35:27;;;;;;;;;;;16.10;99.90;;;15.83;100.00;98547.84;4999182;28;20016;-75
2023/10/07 11:37:58;;;;;;;;;;;16.10;99.90;;;15.82;100.00;98551.38;4998800;28;19949;-74
2023/10/07 11:40:27;;;;;;;;;;;16.30;99.90;;;15.89;100.00;98552.75;5002942;28;19941;-75
2023/10/07 11:42:56;;;;;;;;;;;16.40;99.90;;;15.86;100.00;98547.69;5014739;28;20514;-72
2023/10/07 11:45:26;;;;;;;;;;;16.50;99.90;;;16.35;100.00;98552.25;5004280;28;19968;-74
2023/10/07 11:47:57;;;;;;;;;;;16.50;99.90;;;16.22;100.00;98549.41;5005317;28;19932;-71
2023/10/07 11:50:27;;;;;;;;;;;16.70;99.90;;;16.26;100.00;98543.94;5007569;28;19929;-71
2023/10/07 11:52:55;;;;;;;;;;;17.00;99.90;;;16.67;100.00;98543.59;4994357;28;19933;-72
2023/10/07 11:55:22;;;;;;;;;;;16.90;99.90;;;16.60;100.00;98534.34;5014493;28;19993;-72
2023/10/07 11:57:50;;;;;;;;;;;16.90;99.90;;;16.35;100.00;98542.59;5002957;28;20673;-71
2023/10/07 12:00:27;;;;;;;;;;;16.90;99.90;;;16.50;100.00;98541.84;5001599;28;19965;-74
2023/10/07 12:02:58;;;;;;;;;;;16.80;99.90;;;16.63;100.00;98544.69;5002637;28;19934;-73
2023/10/07 12:05:27;;;;;;;;;;;16.90;99.90;;;16.47;100.00;98547.25;4991930;28;19968;-72
2023/10/07 12:07:59;;;;;;;;;;;17.10;99.90;;;16.50;100.00;98531.34;5002215;28;19930;-73
2023/10/07 12:10:33;;;;;;;;;;;17.10;99.90;;;16.87;100.00;98533.84;5001882;28;19926;-72
2023/10/07 12:13:00;;;;;;;;;;;17.10;99.90;;;16.79;100.00;98541.28;5002495;28;19933;-72
2023/10/07 12:15:27;;;;;;;;;;;17.10;99.90;;;17.07;100.00;98538.88;5000733;28;19933;-71
2023/10/07 12:17:54;;;;;;;;;;;17.40;99.90;;;17.22;100.00;98542.47;5006968;28;19992;-71
2023/10/07 12:20:22;;;;;;;;;;;17.40;99.90;;;16.90;100.00;98537.19;5005170;28;19933;-72
2023/10/07 12:22:49;;;;;;;;;;;17.50;99.90;;;16.93;100.00;98537.00;5017328;28;20465;-73
2023/10/07 12:25:17;;;;;;;;;;;17.60;99.90;;;17.30;100.00;98527.16;5003252;28;19997;-73
2023/10/07 12:27:51;;;;;;;;;;;17.50;99.90;;;17.50;100.00;98526.06;5006006;28;20016;-74
2023/10/07 12:30:21;;;;;;;;;;;17.60;99.90;;;17.87;100.00;98525.78;4990404;28;19933;-72